Time;durP1;ratioP1;P1;durP2;ratioP2;P2;SDS_P1;SDS_P2;PMS_P1;PMS_P2;Temp;Humidity;BMP_temperature;BMP_pressure;BME280_temperature;BME280_humidity;BME280_pressure;Samples;Min_cycle;Max_cycle;Signal;HPM_P1;HPM_P2
2021/11/20 00:03:56;;;;;;;15.80;14.30;;;10.20;99.90;;;;;;10552876;28;20244;-83
2021/11/20 00:09:01;;;;;;;15.90;14.40;;;10.20;99.90;;;;;;10542028;28;20219;-83
2021/11/20 00:14:04;;;;;;;15.43;13.93;;;10.20;99.90;;;;;;10534738;28;20306;-83
2021/11/20 00:19:06;;;;;;;15.73;14.10;;;10.20;99.90;;;;;;10534926;28;20302;-83
2021/11/20 00:24:19;;;;;;;14.33;12.87;;;10.20;99.90;;;;;;10549464;28;20253;-83
2021/11/20 00:29:26;;;;;;;16.43;14.93;;;10.20;99.90;;;;;;10565392;28;20655;-83
2021/11/20 00:34:31;;;;;;;15.00;13.60;;;10.20;99.90;;;;;;10551301;28;20234;-83
2021/11/20 00:39:37;;;;;;;16.40;14.80;;;10.10;99.90;;;;;;10533435;28;20213;-83
2021/11/20 00:44:42;;;;;;;14.60;13.20;;;10.10;99.90;;;;;;10529754;28;20298;-83
2021/11/20 00:49:45;;;;;;;16.93;15.20;;;10.20;99.90;;;;;;10557464;28;20284;-84
2021/11/20 01:15:39;;;;;;;15.37;13.93;;;10.10;99.90;;;;;;10423009;28;20743;-83
2021/11/20 01:48:46;;;;;;;;;;;;;;;;;;;;;
2021/11/20 02:08:15;;;;;;;16.07;14.57;;;10.10;99.90;;;;;;10387250;28;20423;-82
2021/11/20 02:13:36;;;;;;;17.50;15.70;;;10.20;99.90;;;;;;10420878;28;20225;-84
2021/11/20 02:18:43;;;;;;;16.67;15.00;;;10.20;99.90;;;;;;10534946;28;20317;-84
2021/11/20 02:23:46;;;;;;;17.07;15.37;;;10.20;99.90;;;;;;10556005;28;20223;-84
2021/11/20 02:28:51;;;;;;;16.30;14.70;;;10.20;99.90;;;;;;10534392;28;20257;-83
2021/11/20 02:34:13;;;;;;;15.33;13.77;;;10.20;99.90;;;;;;10529825;28;20313;-84
2021/11/20 02:39:18;;;;;;;15.00;13.50;;;10.20;99.90;;;;;;10535236;28;20803;-84
2021/11/20 02:44:22;;;;;;;15.10;13.50;;;10.20;99.90;;;;;;10526059;28;20234;-83
2021/11/20 02:49:30;;;;;;;15.70;14.00;;;10.30;99.90;;;;;;10534165;28;20230;-83
2021/11/20 02:54:54;;;;;;;15.33;13.90;;;10.20;99.90;;;;;;10528022;28;20588;-83
2021/11/20 02:59:58;;;;;;;14.63;13.23;;;10.20;99.90;;;;;;10555316;28;20659;-83
2021/11/20 03:05:05;;;;;;;15.83;14.23;;;10.30;99.90;;;;;;10547530;28;20214;-83
2021/11/20 03:10:09;;;;;;;14.83;13.33;;;10.20;99.90;;;;;;10532734;28;20277;-83
2021/11/20 03:15:12;;;;;;;14.63;13.17;;;10.20;99.90;;;;;;10528556;28;20219;-84
2021/11/20 03:20:23;;;;;;;15.13;13.70;;;10.20;99.90;;;;;;10530219;28;20235;-83
2021/11/20 03:25:26;;;;;;;17.60;15.97;;;10.30;99.90;;;;;;10531111;28;20200;-84
2021/11/20 03:30:31;;;;;;;15.00;13.40;;;10.20;99.90;;;;;;10528248;28;20230;-84
2021/11/20 03:35:35;;;;;;;15.90;14.40;;;10.30;99.90;;;;;;10530848;28;20238;-84
2021/11/20 03:40:49;;;;;;;16.93;15.13;;;10.30;99.90;;;;;;10540037;28;20257;-83
2021/11/20 03:45:52;;;;;;;15.93;14.43;;;10.30;99.90;;;;;;10530066;28;20203;-84
2021/11/20 03:50:59;;;;;;;15.17;13.73;;;10.30;99.90;;;;;;10541013;28;20276;-84
2021/11/20 03:56:02;;;;;;;15.50;14.00;;;10.30;99.90;;;;;;10532069;28;20223;-83
2021/11/20 04:01:09;;;;;;;16.30;14.70;;;10.20;99.90;;;;;;10559017;28;20227;-84
2021/11/20 04:06:15;;;;;;;15.63;14.27;;;10.20;99.90;;;;;;10560137;28;20248;-84
2021/11/20 04:11:24;;;;;;;15.93;14.43;;;10.20;99.90;;;;;;10542102;28;20231;-84
2021/11/20 04:16:29;;;;;;;15.10;13.63;;;10.20;99.90;;;;;;10571038;28;20280;-84
2021/11/20 04:21:36;;;;;;;16.67;15.00;;;10.20;99.90;;;;;;10534172;28;20268;-83
2021/11/20 04:26:39;;;;;;;16.33;14.77;;;10.20;99.90;;;;;;10551554;28;20283;-84
2021/11/20 04:40:03;;;;;;;16.13;14.53;;;10.30;99.90;;;;;;10169553;28;20325;-83
2021/11/20 04:58:18;;;;;;;15.13;13.73;;;10.20;99.90;;;;;;10464666;28;20315;-84
2021/11/20 05:04:52;;;;;;;16.60;13.47;;;10.20;99.90;;;;;;10518349;28;20224;-84
2021/11/20 05:11:13;;;;;;;13.67;12.30;;;10.20;99.90;;;;;;10522681;28;20805;-84
2021/11/20 05:17:45;;;;;;;15.33;13.80;;;10.20;99.90;;;;;;10531574;28;20227;-83
2021/11/20 05:23:34;;;;;;;14.33;12.93;;;10.20;99.90;;;;;;10345868;28;20235;-82
2021/11/20 05:28:37;;;;;;;13.60;12.30;;;10.20;99.90;;;;;;10468592;28;20227;-83
2021/11/20 05:33:42;;;;;;;13.50;11.50;;;10.20;99.90;;;;;;10524903;28;20765;-83
2021/11/20 05:38:48;;;;;;;12.40;11.10;;;10.20;99.90;;;;;;10509027;28;20285;-83
2021/11/20 05:43:51;;;;;;;10.70;9.70;;;10.20;99.90;;;;;;10510333;28;20223;-83
2021/11/20 05:49:05;;;;;;;10.10;9.20;;;10.20;99.90;;;;;;10507809;28;20208;-83
2021/11/20 05:54:09;;;;;;;10.90;9.90;;;10.20;99.90;;;;;;10508877;28;20254;-82
2021/11/20 05:59:11;;;;;;;12.80;11.50;;;10.20;99.90;;;;;;10502501;28;20300;-82
2021/11/20 06:04:15;;;;;;;11.10;10.00;;;10.30;99.90;;;;;;10495123;28;20223;-83
2021/11/20 06:09:19;;;;;;;11.10;9.53;;;10.30;99.90;;;;;;10509507;28;20204;-83
2021/11/20 06:14:21;;;;;;;10.57;9.53;;;10.30;99.90;;;;;;10509469;28;20243;-83
2021/11/20 06:19:23;;;;;;;10.47;9.53;;;10.30;99.90;;;;;;10522785;28;20227;-83
2021/11/20 06:24:45;;;;;;;11.00;9.90;;;10.20;99.90;;;;;;10504629;28;20223;-83
2021/11/20 06:30:53;;;;;;;10.70;9.70;;;10.20;99.90;;;;;;10525403;28;20226;-83
2021/11/20 06:43:05;;;;;;;;;;;;;;;;;;;;;
2021/11/20 06:49:42;;;;;;;11.63;10.43;;;10.20;99.90;;;;;;10365486;27;20686;-83
2021/11/20 08:24:28;;;;;;;13.53;12.23;;;10.20;99.90;;;;;;10116550;28;20336;-83
2021/11/20 08:29:57;;;;;;;14.67;12.43;;;10.20;99.90;;;;;;10283384;28;20693;-83
2021/11/20 08:35:03;;;;;;;14.73;13.27;;;10.30;99.90;;;;;;10499935;28;20227;-83
2021/11/20 08:40:18;;;;;;;15.33;13.73;;;10.40;99.90;;;;;;10540621;28;20646;-83
2021/11/20 08:45:25;;;;;;;15.00;13.50;;;10.40;99.90;;;;;;10517662;28;20280;-84
2021/11/20 08:50:30;;;;;;;14.53;13.13;;;10.50;99.90;;;;;;10499211;28;20232;-84
2021/11/20 08:55:35;;;;;;;15.57;13.97;;;10.60;99.90;;;;;;10510302;28;20249;-84
2021/11/20 09:01:30;;;;;;;12.97;11.57;;;10.70;99.90;;;;;;10521778;28;20239;-83
2021/11/20 09:06:55;;;;;;;14.40;12.90;;;10.70;99.90;;;;;;10489861;28;20286;-84
2021/11/20 09:12:09;;;;;;;12.50;11.30;;;10.80;99.90;;;;;;10493702;28;20921;-84
2021/11/20 09:17:15;;;;;;;11.03;9.97;;;10.80;99.90;;;;;;10503924;28;20219;-84
2021/11/20 09:22:18;;;;;;;10.20;9.30;;;10.80;99.90;;;;;;10503150;28;20226;-84
2021/11/20 09:27:30;;;;;;;10.43;9.37;;;10.90;99.90;;;;;;10517989;28;20207;-84
2021/11/20 09:44:58;;;;;;;8.90;8.00;;;10.90;99.90;;;;;;10517124;28;20287;-84
2021/11/20 09:50:08;;;;;;;9.33;8.47;;;10.90;99.90;;;;;;10517730;28;20247;-84
2021/11/20 09:55:15;;;;;;;9.90;9.00;;;11.00;99.90;;;;;;10500211;28;20201;-83
2021/11/20 10:00:59;;;;;;;9.80;8.53;;;11.10;99.90;;;;;;10499100;28;20220;-83
2021/11/20 10:06:07;;;;;;;7.00;6.23;;;11.20;99.90;;;;;;10482381;28;20208;-84
2021/11/20 10:11:26;;;;;;;7.30;6.50;;;11.20;99.90;;;;;;10481764;28;20731;-84
2021/11/20 10:16:44;;;;;;;6.77;6.17;;;11.30;99.90;;;;;;10479123;28;20243;-84
2021/11/20 10:22:07;;;;;;;5.70;5.20;;;11.30;99.90;;;;;;10524793;28;20295;-84
2021/11/20 10:27:20;;;;;;;7.30;6.60;;;11.30;99.90;;;;;;10482137;28;20206;-84
2021/11/20 10:32:33;;;;;;;10.20;9.20;;;11.30;99.90;;;;;;10501248;28;20216;-84
2021/11/20 10:37:41;;;;;;;11.33;9.50;;;11.30;99.90;;;;;;10486709;28;20252;-82
2021/11/20 10:42:52;;;;;;;6.50;5.90;;;11.10;99.90;;;;;;10485682;28;20749;-83
2021/11/20 10:47:57;;;;;;;7.30;6.70;;;11.10;99.90;;;;;;10499200;28;20200;-83
2021/11/20 10:53:35;;;;;;;7.73;7.03;;;11.10;99.90;;;;;;10516336;28;20221;-83
2021/11/20 11:12:46;;;;;;;7.80;7.10;;;11.10;99.90;;;;;;10276010;28;20675;-84
2021/11/20 11:18:18;;;;;;;7.97;7.20;;;11.10;99.90;;;;;;10405459;28;20220;-83
2021/11/20 11:23:29;;;;;;;7.60;6.90;;;11.10;99.90;;;;;;10499026;28;20315;-83
2021/11/20 11:28:37;;;;;;;6.77;6.00;;;11.20;99.90;;;;;;10493379;28;20714;-83
2021/11/20 11:33:42;;;;;;;6.83;6.13;;;11.30;99.90;;;;;;10476424;28;20315;-83
2021/11/20 11:39:14;;;;;;;5.83;5.33;;;11.30;99.90;;;;;;10491067;28;20243;-83
2021/11/20 11:44:32;;;;;;;6.30;5.37;;;11.30;99.90;;;;;;10484579;28;20232;-83
2021/11/20 11:49:50;;;;;;;6.60;5.77;;;11.30;99.90;;;;;;10521106;28;20577;-83
2021/11/20 11:55:12;;;;;;;6.40;5.70;;;11.30;99.90;;;;;;10488413;28;20249;-83
2021/11/20 12:00:30;;;;;;;7.03;6.37;;;11.30;99.90;;;;;;10489519;28;20236;-82
2021/11/20 12:05:38;;;;;;;7.53;6.83;;;11.30;99.90;;;;;;10486535;28;20208;-84
2021/11/20 12:10:57;;;;;;;8.33;7.53;;;11.30;99.90;;;;;;10486605;28;20224;-84
2021/11/20 12:16:12;;;;;;;8.13;7.33;;;11.30;99.90;;;;;;10513722;28;20211;-83
2021/11/20 12:21:27;;;;;;;8.00;7.23;;;11.30;99.90;;;;;;10497925;28;20228;-82
2021/11/20 12:26:34;;;;;;;7.53;6.80;;;11.30;99.90;;;;;;10495514;28;20574;-82
2021/11/20 12:32:00;;;;;;;7.40;6.80;;;11.30;99.90;;;;;;10480029;28;20263;-82
2021/11/20 12:37:45;;;;;;;7.73;6.97;;;11.20;99.90;;;;;;10476986;28;20230;-83
2021/11/20 12:43:06;;;;;;;9.00;8.10;;;11.20;99.90;;;;;;10476806;28;20246;-83
2021/11/20 12:48:31;;;;;;;9.20;8.30;;;11.20;99.90;;;;;;10475065;28;20200;-82
2021/11/20 12:53:36;;;;;;;9.80;8.80;;;11.20;99.90;;;;;;10493562;28;20658;-85
2021/11/20 12:58:42;;;;;;;9.03;8.13;;;11.20;99.90;;;;;;10470955;28;20285;-83
2021/11/20 13:03:48;;;;;;;10.13;9.10;;;11.20;99.90;;;;;;10493220;28;20256;-84
2021/11/20 13:08:53;;;;;;;11.00;8.60;;;11.30;99.90;;;;;;10476269;28;20629;-84
2021/11/20 13:14:09;;;;;;;8.50;7.70;;;11.30;99.90;;;;;;10509286;28;20320;-84
2021/11/20 13:19:24;;;;;;;8.87;8.10;;;11.30;99.90;;;;;;10484008;28;20227;-82
2021/11/20 13:24:29;;;;;;;9.23;8.20;;;11.30;99.90;;;;;;10476066;28;20235;-83
2021/11/20 13:29:38;;;;;;;9.20;7.70;;;11.20;99.90;;;;;;10474621;28;20211;-83
2021/11/20 13:34:40;;;;;;;15.17;11.70;;;11.20;99.90;;;;;;10476869;28;20229;-83
2021/11/20 13:39:43;;;;;;;12.30;11.00;;;11.10;99.90;;;;;;10478741;28;20289;-83
2021/11/20 13:44:50;;;;;;;10.60;9.60;;;11.10;99.90;;;;;;10477196;28;20311;-84
2021/11/20 13:49:56;;;;;;;11.90;10.77;;;11.00;99.90;;;;;;10476101;28;20303;-84
2021/11/20 13:55:01;;;;;;;10.90;9.37;;;10.90;99.90;;;;;;10477121;28;20262;-83
2021/11/20 14:00:09;;;;;;;11.37;10.37;;;10.90;99.90;;;;;;10493292;28;20715;-83
2021/11/20 14:05:20;;;;;;;11.53;10.47;;;10.90;99.90;;;;;;10493019;28;20210;-83
2021/11/20 14:10:30;;;;;;;11.17;10.07;;;10.90;99.90;;;;;;10493071;28;20299;-84
2021/11/20 14:15:48;;;;;;;12.13;10.83;;;10.80;99.90;;;;;;10491177;28;20727;-82
2021/11/20 14:20:53;;;;;;;10.17;9.27;;;10.90;99.90;;;;;;10474281;28;20627;-83
2021/11/20 14:25:56;;;;;;;11.67;10.53;;;10.90;99.90;;;;;;10473002;28;20573;-83
2021/11/20 14:31:00;;;;;;;10.47;9.47;;;11.00;99.90;;;;;;10490321;28;20282;-85
2021/11/20 14:36:05;;;;;;;10.93;9.80;;;10.90;99.90;;;;;;10489631;28;20541;-85
2021/11/20 14:41:07;;;;;;;11.00;9.90;;;10.90;99.90;;;;;;10504568;28;20224;-83
2021/11/20 14:46:16;;;;;;;12.07;10.97;;;10.90;99.90;;;;;;10509994;28;20201;-84
2021/11/20 14:51:18;;;;;;;9.77;8.87;;;10.90;99.90;;;;;;10510119;28;20244;-83
2021/11/20 14:56:27;;;;;;;10.37;9.47;;;10.90;99.90;;;;;;10473723;28;20291;-84
2021/11/20 15:01:32;;;;;;;9.93;9.03;;;10.90;99.90;;;;;;10475055;28;20235;-84
2021/11/20 15:06:37;;;;;;;9.37;8.47;;;10.80;99.90;;;;;;10474988;28;20287;-83
2021/11/20 15:11:39;;;;;;;10.53;9.53;;;10.80;99.90;;;;;;10493715;28;20618;-84
2021/11/20 15:16:43;;;;;;;9.90;8.90;;;10.70;99.90;;;;;;10476922;28;20212;-84
2021/11/20 15:21:45;;;;;;;11.00;9.90;;;10.70;99.90;;;;;;10494100;28;20270;-84
2021/11/20 15:26:48;;;;;;;9.93;8.93;;;10.70;99.90;;;;;;10477447;28;20259;-85
2021/11/20 15:31:51;;;;;;;9.90;9.00;;;10.60;99.90;;;;;;10474961;28;20233;-83
2021/11/20 15:36:54;;;;;;;9.73;8.70;;;10.60;99.90;;;;;;10491460;28;20220;-84
2021/11/20 15:42:00;;;;;;;11.57;10.57;;;10.40;99.90;;;;;;10494098;28;20224;-84
2021/11/20 15:52:28;;;;;;;8.90;8.10;;;10.30;99.90;;;;;;10482608;28;20597;-83
2021/11/20 15:57:35;;;;;;;8.80;8.00;;;10.20;99.90;;;;;;10493749;28;20228;-84
2021/11/20 16:02:48;;;;;;;9.07;8.17;;;10.00;99.90;;;;;;10482225;28;20251;-83
2021/11/20 16:21:55;;;;;;;12.13;11.07;;;9.50;99.90;;;;;;10446954;28;20223;-83
2021/11/20 16:26:57;;;;;;;13.40;12.10;;;9.30;99.90;;;;;;10479065;28;20204;-84
2021/11/20 16:37:40;;;;;;;9.53;8.60;;;9.10;99.90;;;;;;10497449;28;20216;-85
2021/11/20 16:42:43;;;;;;;9.20;8.50;;;9.00;99.90;;;;;;10498812;28;20661;-84
2021/11/20 16:47:48;;;;;;;10.00;9.10;;;8.90;99.90;;;;;;10479315;28;20204;-84
2021/11/20 16:59:53;;;;;;;;;;;;;;;;;;;;;
2021/11/20 17:06:27;;;;;;;11.63;10.63;;;8.80;99.90;;;;;;10397490;28;20204;-84
2021/11/20 17:11:57;;;;;;;10.73;9.63;;;8.70;99.90;;;;;;10259714;28;20238;-85
2021/11/20 17:17:00;;;;;;;9.50;8.70;;;8.60;99.90;;;;;;10405707;28;20208;-84
2021/11/20 17:22:04;;;;;;;12.20;11.00;;;8.60;99.90;;;;;;10478811;28;20292;-85
2021/11/20 17:27:07;;;;;;;12.43;11.43;;;8.50;99.90;;;;;;10498690;28;20307;-84
2021/11/20 17:32:09;;;;;;;13.20;12.00;;;8.40;99.90;;;;;;10494532;28;20239;-84
2021/11/20 17:37:12;;;;;;;12.73;11.70;;;8.30;99.90;;;;;;10474812;28;20244;-83
2021/11/20 17:42:15;;;;;;;15.70;14.20;;;8.20;99.90;;;;;;10491082;28;20291;-84
2021/11/20 17:47:19;;;;;;;16.43;14.63;;;8.20;99.90;;;;;;10474670;28;20268;-83
2021/11/20 17:52:21;;;;;;;15.90;14.40;;;8.20;99.90;;;;;;10470244;28;20232;-83
2021/11/20 17:57:25;;;;;;;13.53;12.27;;;8.20;99.90;;;;;;10481444;28;20663;-83
2021/11/20 18:02:27;;;;;;;15.43;13.83;;;8.10;99.90;;;;;;10460967;28;20266;-83
2021/11/20 18:07:29;;;;;;;16.70;15.20;;;8.00;99.90;;;;;;10463952;28;20239;-83
2021/11/20 18:12:33;;;;;;;16.70;15.10;;;8.00;99.90;;;;;;10481715;28;20250;-83
2021/11/20 18:17:37;;;;;;;16.20;14.77;;;8.00;99.90;;;;;;10507418;22;20234;-79
2021/11/20 18:22:40;;;;;;;16.37;14.87;;;8.00;99.90;;;;;;10510215;28;20203;-79
2021/11/20 18:27:43;;;;;;;16.30;14.80;;;8.10;99.90;;;;;;10511984;28;20311;-79
2021/11/20 18:32:46;;;;;;;16.73;15.23;;;8.10;99.90;;;;;;10516666;28;20231;-79
2021/11/20 18:37:48;;;;;;;19.33;17.53;;;8.10;99.90;;;;;;10536984;28;20220;-79
2021/11/20 18:42:52;;;;;;;18.13;16.53;;;8.20;99.90;;;;;;10516988;28;20590;-79
2021/11/20 18:47:55;;;;;;;18.00;16.30;;;8.40;99.90;;;;;;10498836;28;20230;-79
2021/11/20 18:52:57;;;;;;;18.07;16.27;;;8.50;99.90;;;;;;10534393;28;20276;-79
2021/11/20 18:58:01;;;;;;;19.67;17.70;;;8.70;99.90;;;;;;10498294;28;20223;-79
2021/11/20 19:03:03;;;;;;;17.23;15.73;;;8.70;99.90;;;;;;10499447;28;20298;-79
2021/11/20 19:08:06;;;;;;;19.33;17.50;;;8.80;99.90;;;;;;10487642;28;20230;-79
2021/11/20 19:13:10;;;;;;;19.70;17.80;;;8.80;99.90;;;;;;10518890;28;20219;-79
2021/11/20 19:18:12;;;;;;;21.37;19.17;;;8.80;99.90;;;;;;10525083;28;20228;-79
2021/11/20 19:23:14;;;;;;;19.37;17.60;;;8.80;99.90;;;;;;10549925;28;20299;-79
2021/11/20 19:28:18;;;;;;;20.20;18.20;;;8.80;99.90;;;;;;10529508;28;20219;-79
2021/11/20 19:33:21;;;;;;;19.03;17.33;;;8.90;99.90;;;;;;10507245;28;20253;-79
2021/11/20 19:38:23;;;;;;;18.83;17.13;;;8.90;99.90;;;;;;10524056;28;20728;-79
2021/11/20 19:43:27;;;;;;;16.80;15.30;;;9.00;99.90;;;;;;10505518;28;20235;-79
2021/11/20 19:48:29;;;;;;;20.40;18.40;;;9.00;99.90;;;;;;10505602;28;20227;-79
2021/11/20 19:53:31;;;;;;;17.17;15.47;;;9.00;99.90;;;;;;10522210;28;20295;-79
2021/11/20 19:58:35;;;;;;;18.47;16.70;;;9.00;99.90;;;;;;10521644;28;20232;-79
2021/11/20 20:03:37;;;;;;;18.37;16.50;;;9.00;99.90;;;;;;10522121;28;20204;-79
2021/11/20 20:08:41;;;;;;;18.57;16.77;;;9.00;99.90;;;;;;10539898;28;20224;-79
2021/11/20 20:13:45;;;;;;;18.97;17.07;;;9.10;99.90;;;;;;10533921;28;20204;-79
2021/11/20 20:18:48;;;;;;;19.43;17.53;;;9.10;99.90;;;;;;10521847;28;20778;-79
2021/11/20 20:23:51;;;;;;;17.73;16.03;;;9.00;99.90;;;;;;10504847;28;20200;-79
2021/11/20 20:28:56;;;;;;;19.97;17.87;;;9.00;99.90;;;;;;10504344;28;20314;-79
2021/11/20 20:33:59;;;;;;;18.80;17.10;;;9.00;99.90;;;;;;10520802;28;20200;-79
2021/11/20 20:39:01;;;;;;;18.87;17.17;;;9.00;99.90;;;;;;10506203;28;20236;-79
2021/11/20 20:44:06;;;;;;;19.33;17.40;;;8.90;99.90;;;;;;10502301;28;20686;-79
2021/11/20 20:49:08;;;;;;;19.20;17.20;;;9.00;99.90;;;;;;10514649;28;20275;-79
2021/11/20 20:54:11;;;;;;;18.00;16.30;;;8.90;99.90;;;;;;10515488;28;20200;-80
2021/11/20 20:59:14;;;;;;;18.93;17.13;;;8.90;99.90;;;;;;10493935;28;20319;-80
2021/11/20 21:04:18;;;;;;;17.60;15.90;;;8.80;99.90;;;;;;10527554;28;20202;-80
2021/11/20 21:09:20;;;;;;;18.43;16.67;;;8.80;99.90;;;;;;10497893;28;20333;-80
2021/11/20 21:14:29;;;;;;;16.57;14.97;;;8.70;99.90;;;;;;10519654;28;20221;-80
2021/11/20 21:22:08;;;;;;;16.63;15.10;;;8.70;99.90;;;;;;10534349;28;20248;-80
2021/11/20 21:25:01;;;;;;;15.80;14.27;;;8.70;99.90;;;;;;10517536;28;20683;-80
2021/11/20 21:30:05;;;;;;;15.53;14.20;;;8.70;99.90;;;;;;10510728;28;20273;-80
2021/11/20 21:35:08;;;;;;;15.00;13.70;;;8.70;99.90;;;;;;10531202;28;20211;-80
2021/11/20 21:40:10;;;;;;;16.10;14.43;;;8.70;99.90;;;;;;10512501;28;20318;-80
2021/11/20 21:45:14;;;;;;;14.47;13.07;;;8.70;99.90;;;;;;10513619;28;20253;-80
2021/11/20 21:50:17;;;;;;;14.43;13.03;;;8.70;99.90;;;;;;10501865;28;20665;-80
2021/11/20 21:55:19;;;;;;;15.27;13.87;;;8.70;99.90;;;;;;10508095;28;20725;-80
2021/11/20 22:00:23;;;;;;;16.03;14.53;;;8.70;99.90;;;;;;10510841;28;20513;-80
2021/11/20 22:05:25;;;;;;;15.67;14.17;;;8.70;99.90;;;;;;10494098;28;20208;-80
2021/11/20 22:10:27;;;;;;;15.10;13.60;;;8.70;99.90;;;;;;10507883;28;20220;-80
2021/11/20 22:15:31;;;;;;;15.63;14.13;;;8.70;99.90;;;;;;10542286;28;20200;-80
2021/11/20 22:20:34;;;;;;;16.20;14.57;;;8.70;99.90;;;;;;10523799;28;20282;-80
2021/11/20 22:25:37;;;;;;;15.77;14.37;;;8.70;99.90;;;;;;10529970;28;20200;-80
2021/11/20 22:30:42;;;;;;;16.03;14.53;;;8.60;99.90;;;;;;10541251;28;20239;-80
2021/11/20 22:35:45;;;;;;;17.23;15.43;;;8.70;99.90;;;;;;10547111;28;20283;-80
2021/11/20 22:40:47;;;;;;;17.17;15.63;;;8.60;99.90;;;;;;10561109;28;20230;-80
2021/11/20 22:45:52;;;;;;;16.60;15.00;;;8.60;99.90;;;;;;10525436;28;20272;-80
2021/11/20 22:50:54;;;;;;;16.40;14.80;;;8.60;99.90;;;;;;10542668;28;20278;-80
2021/11/20 22:55:56;;;;;;;16.90;15.30;;;8.60;99.90;;;;;;10566445;28;20568;-80
2021/11/20 23:01:00;;;;;;;17.73;15.93;;;8.60;99.90;;;;;;10565787;28;20288;-80
2021/11/20 23:06:14;;;;;;;19.07;17.10;;;8.60;99.90;;;;;;10543856;28;20209;-80
2021/11/20 23:11:17;;;;;;;18.83;16.93;;;8.70;99.90;;;;;;10523874;28;20224;-80
2021/11/20 23:16:20;;;;;;;19.80;17.73;;;8.70;99.90;;;;;;10546294;28;20208;-80
2021/11/20 23:21:23;;;;;;;21.07;18.77;;;8.60;99.90;;;;;;10524456;28;20227;-80
2021/11/20 23:26:25;;;;;;;19.30;17.30;;;8.60;99.90;;;;;;10517073;28;20212;-80
2021/11/20 23:31:28;;;;;;;19.37;17.47;;;8.60;99.90;;;;;;10544160;28;20216;-80
2021/11/20 23:36:37;;;;;;;16.67;15.17;;;8.70;99.90;;;;;;10546219;28;20204;-80
2021/11/20 23:41:43;;;;;;;18.07;16.27;;;8.70;99.90;;;;;;10564064;28;20227;-80
2021/11/20 23:46:47;;;;;;;16.77;15.23;;;8.70;99.90;;;;;;10527731;28;20307;-80
2021/11/20 23:51:49;;;;;;;18.47;16.77;;;8.70;99.90;;;;;;10545546;28;20210;-80
2021/11/20 23:56:51;;;;;;;17.90;16.30;;;8.80;99.90;;;;;;10544509;28;20716;-80
